Time;durP1;ratioP1;P1;durP2;ratioP2;P2;SDS_P1;SDS_P2;PMS_P1;PMS_P2;Temp;Humidity;BMP_temperature;BMP_pressure;BME280_temperature;BME280_humidity;BME280_pressure;Samples;Min_cycle;Max_cycle;Signal;HPM_P1;HPM_P2
2021/04/20 00:00:27;;;;;;;6.40;5.80;;;7.20;99.90;;;;;;4687347;30;20513;-81
2021/04/20 00:02:53;;;;;;;6.63;5.88;;;7.30;99.90;;;;;;4693450;30;20872;-81
2021/04/20 00:05:20;;;;;;;9.88;6.53;;;7.30;99.90;;;;;;4700471;30;20987;-81
2021/04/20 00:07:46;;;;;;;6.57;5.90;;;7.20;99.90;;;;;;4681033;30;20464;-81
2021/04/20 00:10:14;;;;;;;6.60;5.90;;;7.30;99.90;;;;;;4680782;30;20433;-81
2021/04/20 00:12:40;;;;;;;8.48;6.10;;;7.30;99.90;;;;;;4692509;30;20432;-81
2021/04/20 00:15:13;;;;;;;7.35;6.38;;;7.30;99.90;;;;;;4687782;30;20534;-81
2021/04/20 00:17:39;;;;;;;6.68;5.72;;;7.30;99.90;;;;;;4684632;30;20916;-80
2021/04/20 00:20:10;;;;;;;7.30;6.47;;;7.10;99.90;;;;;;4699515;30;20416;-79
2021/04/20 00:22:36;;;;;;;7.68;6.18;;;7.10;99.90;;;;;;4695379;30;20421;-79
2021/04/20 00:25:02;;;;;;;7.40;5.83;;;7.00;99.90;;;;;;4682734;30;20437;-79
2021/04/20 00:27:27;;;;;;;7.55;5.85;;;7.00;99.90;;;;;;4680327;30;22360;-79
2021/04/20 00:29:53;;;;;;;7.88;6.05;;;7.00;99.90;;;;;;4703834;30;20440;-79
2021/04/20 00:32:19;;;;;;;5.87;5.37;;;7.10;99.90;;;;;;4677114;30;20434;-79
2021/04/20 00:34:44;;;;;;;6.43;5.55;;;7.10;99.90;;;;;;4694746;30;20425;-79
2021/04/20 00:37:10;;;;;;;6.20;5.60;;;7.20;99.90;;;;;;4677698;30;20857;-80
2021/04/20 00:39:37;;;;;;;6.35;5.28;;;7.10;99.90;;;;;;4693224;30;20430;-80
2021/04/20 00:42:06;;;;;;;5.50;4.95;;;7.10;99.90;;;;;;4673291;30;20516;-79
2021/04/20 00:44:32;;;;;;;5.57;5.07;;;7.10;99.90;;;;;;4679953;30;20443;-80
2021/04/20 00:46:59;;;;;;;5.93;5.35;;;7.20;99.90;;;;;;4706153;30;20837;-80
2021/04/20 00:49:24;;;;;;;6.85;5.10;;;7.10;99.90;;;;;;4696199;30;20437;-79
2021/04/20 00:51:54;;;;;;;5.97;5.35;;;7.20;99.90;;;;;;4699167;30;20562;-79
2021/04/20 00:54:19;;;;;;;5.95;5.28;;;7.10;99.90;;;;;;4683416;30;20460;-79
2021/04/20 00:56:46;;;;;;;7.27;4.97;;;7.20;99.90;;;;;;4682100;30;20512;-80
2021/04/20 00:59:12;;;;;;;5.93;5.43;;;7.10;99.90;;;;;;4693069;30;20919;-80
2021/04/20 01:01:38;;;;;;;5.50;4.90;;;7.10;99.90;;;;;;4687941;30;20498;-79
2021/04/20 01:04:04;;;;;;;5.83;5.20;;;7.00;99.90;;;;;;4700913;30;20449;-79
2021/04/20 01:06:30;;;;;;;5.57;5.07;;;7.00;99.90;;;;;;4676216;30;20425;-79
2021/04/20 01:08:56;;;;;;;6.13;5.43;;;6.90;99.90;;;;;;4680410;30;20415;-80
2021/04/20 01:11:22;;;;;;;5.50;5.00;;;6.90;99.90;;;;;;4683537;30;20492;-78
2021/04/20 01:13:48;;;;;;;5.50;5.00;;;6.90;99.90;;;;;;4698843;30;20434;-79
2021/04/20 01:16:14;;;;;;;5.27;4.77;;;6.80;99.90;;;;;;4679888;30;20505;-79
2021/04/20 01:18:40;;;;;;;6.25;4.82;;;6.90;99.90;;;;;;4666550;30;20496;-79
2021/04/20 01:21:10;;;;;;;6.22;5.63;;;7.00;99.90;;;;;;4687503;30;20429;-80
2021/04/20 01:24:03;;;;;;;5.63;5.13;;;6.80;99.90;;;;;;4699769;30;20496;-79
2021/04/20 01:26:38;;;;;;;5.20;4.70;;;6.60;99.90;;;;;;4698272;30;20425;-79
2021/04/20 01:29:05;;;;;;;5.40;4.90;;;6.60;99.90;;;;;;4701305;30;20427;-79
2021/04/20 01:31:31;;;;;;;5.30;4.80;;;6.60;99.90;;;;;;4682513;30;20433;-79
2021/04/20 01:33:57;;;;;;;4.57;4.18;;;6.50;99.90;;;;;;4663156;30;20420;-79
2021/04/20 01:36:24;;;;;;;4.30;3.90;;;6.40;99.90;;;;;;4673005;30;21052;-79
2021/04/20 01:38:50;;;;;;;4.63;4.22;;;6.50;99.90;;;;;;4686756;30;20539;-79
2021/04/20 01:41:16;;;;;;;4.90;4.43;;;6.30;99.90;;;;;;4681206;30;20943;-79
2021/04/20 01:43:42;;;;;;;4.53;4.13;;;6.30;99.90;;;;;;4680494;30;20441;-79
2021/04/20 01:46:08;;;;;;;4.22;3.85;;;6.30;99.90;;;;;;4686696;30;20445;-79
2021/04/20 01:48:34;;;;;;;4.32;3.92;;;6.20;99.90;;;;;;4677146;30;20416;-79
2021/04/20 01:51:00;;;;;;;3.72;3.42;;;6.20;99.90;;;;;;4684412;30;20501;-79
2021/04/20 01:53:26;;;;;;;3.92;3.63;;;6.20;99.90;;;;;;4688736;30;20428;-79
2021/04/20 01:56:08;;;;;;;4.17;3.87;;;6.10;99.90;;;;;;4680521;30;20413;-79
2021/04/20 01:58:35;;;;;;;4.00;3.70;;;6.00;99.90;;;;;;4679240;30;20932;-79
2021/04/20 02:01:04;;;;;;;5.20;4.78;;;5.90;99.90;;;;;;4686789;30;21061;-78
2021/04/20 02:03:30;;;;;;;4.90;4.45;;;5.90;99.90;;;;;;4679965;30;20948;-79
2021/04/20 02:05:56;;;;;;;5.20;4.68;;;5.80;99.90;;;;;;4677926;30;20575;-79
2021/04/20 02:08:22;;;;;;;5.45;4.40;;;5.80;99.90;;;;;;4678328;30;20780;-79
2021/04/20 02:10:48;;;;;;;4.67;4.27;;;5.80;99.90;;;;;;4678428;30;20432;-79
2021/04/20 02:13:14;;;;;;;4.40;4.00;;;5.90;99.90;;;;;;4676299;30;20490;-79
2021/04/20 02:15:40;;;;;;;4.47;4.07;;;5.80;99.90;;;;;;4677625;30;20418;-80
2021/04/20 02:18:06;;;;;;;4.60;4.20;;;5.60;99.90;;;;;;4677287;30;20430;-79
2021/04/20 02:20:32;;;;;;;4.07;3.78;;;5.50;99.90;;;;;;4676720;30;20426;-79
2021/04/20 02:22:57;;;;;;;3.63;3.33;;;5.70;99.90;;;;;;4682140;30;20421;-80
2021/04/20 02:25:23;;;;;;;4.30;3.90;;;5.70;99.90;;;;;;4679206;30;20435;-79
2021/04/20 02:27:49;;;;;;;3.83;3.50;;;5.90;99.90;;;;;;4679406;30;20497;-79
2021/04/20 02:30:15;;;;;;;4.68;3.40;;;5.90;99.90;;;;;;4682109;30;20429;-80
2021/04/20 02:32:41;;;;;;;3.63;3.33;;;5.80;99.90;;;;;;4690700;30;20424;-80
2021/04/20 02:35:09;;;;;;;3.60;3.30;;;5.70;99.90;;;;;;4695935;30;20436;-80
2021/04/20 02:37:35;;;;;;;3.63;3.33;;;5.80;99.90;;;;;;4698651;30;20445;-79
2021/04/20 02:40:05;;;;;;;3.90;3.60;;;5.80;99.90;;;;;;4682721;30;20444;-79
2021/04/20 02:42:35;;;;;;;3.90;3.50;;;5.90;99.90;;;;;;4692123;30;20429;-79
2021/04/20 02:45:01;;;;;;;4.57;4.18;;;5.80;99.90;;;;;;4668534;30;21167;-79
2021/04/20 02:47:31;;;;;;;4.20;3.85;;;5.80;99.90;;;;;;4681271;30;20431;-79
2021/04/20 02:49:56;;;;;;;4.22;3.83;;;5.90;99.90;;;;;;4689335;30;20446;-80
2021/04/20 02:52:23;;;;;;;5.10;4.50;;;5.90;99.90;;;;;;4679597;30;20429;-80
2021/04/20 02:54:48;;;;;;;4.55;4.15;;;5.60;99.90;;;;;;4691351;30;20475;-80
2021/04/20 02:57:14;;;;;;;4.57;4.20;;;5.50;99.90;;;;;;4661779;30;20450;-80
2021/04/20 02:59:40;;;;;;;4.78;4.30;;;5.60;99.90;;;;;;4685531;30;20501;-79
2021/04/20 03:02:06;;;;;;;4.30;4.00;;;5.60;99.90;;;;;;4684133;30;20480;-80
2021/04/20 03:04:32;;;;;;;4.65;4.25;;;5.60;99.90;;;;;;4682488;30;20472;-80
2021/04/20 03:06:58;;;;;;;6.40;4.78;;;5.70;99.90;;;;;;4687227;30;20428;-80
2021/04/20 03:09:23;;;;;;;4.40;4.00;;;5.60;99.90;;;;;;4696893;30;20508;-80
2021/04/20 03:11:56;;;;;;;4.60;4.20;;;5.60;99.90;;;;;;4677786;30;20421;-80
2021/04/20 03:14:22;;;;;;;4.05;3.65;;;5.60;99.90;;;;;;4678392;30;20793;-80
2021/04/20 03:16:48;;;;;;;4.43;4.03;;;5.60;99.90;;;;;;4677195;30;20494;-79
2021/04/20 03:19:14;;;;;;;3.90;3.60;;;5.70;99.90;;;;;;4705987;30;20922;-79
2021/04/20 03:21:41;;;;;;;3.97;3.67;;;5.70;99.90;;;;;;4679162;30;20418;-79
2021/04/20 03:24:07;;;;;;;3.92;3.63;;;5.80;99.90;;;;;;4675426;30;20438;-79
2021/04/20 03:26:44;;;;;;;4.03;3.72;;;5.60;99.90;;;;;;4673345;30;20433;-79
2021/04/20 03:29:09;;;;;;;4.18;3.78;;;5.60;99.90;;;;;;4681698;30;20505;-78
2021/04/20 03:31:36;;;;;;;4.30;3.93;;;5.60;99.90;;;;;;4690804;30;20849;-79
2021/04/20 03:34:24;;;;;;;4.43;4.03;;;5.60;99.90;;;;;;4686405;30;20519;-79
2021/04/20 03:37:01;;;;;;;4.63;4.30;;;5.60;99.90;;;;;;4691388;30;20417;-79
2021/04/20 03:39:27;;;;;;;4.60;4.20;;;5.60;99.90;;;;;;4689273;30;20425;-79
2021/04/20 03:42:14;;;;;;;5.25;4.75;;;5.60;99.90;;;;;;4692043;30;20839;-78
2021/04/20 03:44:46;;;;;;;5.32;4.82;;;5.70;99.90;;;;;;4696360;30;21144;-79
2021/04/20 03:47:24;;;;;;;5.75;4.70;;;5.80;99.90;;;;;;4672467;30;20444;-78
2021/04/20 03:49:49;;;;;;;4.82;4.43;;;5.80;99.90;;;;;;4683499;30;20427;-79
2021/04/20 03:52:24;;;;;;;4.97;4.55;;;5.90;99.90;;;;;;4694488;30;20415;-79
2021/04/20 03:54:50;;;;;;;5.17;4.70;;;6.00;99.90;;;;;;4677190;30;20495;-79
2021/04/20 03:57:16;;;;;;;4.77;4.37;;;6.00;99.90;;;;;;4678510;30;20425;-80
2021/04/20 03:59:42;;;;;;;5.05;4.55;;;6.00;99.90;;;;;;4694718;30;20508;-81
2021/04/20 04:02:08;;;;;;;4.60;4.20;;;6.00;99.90;;;;;;4691368;30;20838;-81
2021/04/20 04:04:34;;;;;;;5.20;4.80;;;6.10;99.90;;;;;;4695856;30;20450;-81
2021/04/20 04:10:40;;;;;;;4.50;4.10;;;6.00;99.90;;;;;;4703400;30;20472;-82
2021/04/20 04:13:07;;;;;;;4.82;4.43;;;6.10;99.90;;;;;;4693327;30;20445;-80
2021/04/20 04:15:33;;;;;;;5.55;5.05;;;6.20;99.90;;;;;;4680553;30;20776;-80
2021/04/20 04:18:01;;;;;;;5.10;4.70;;;6.10;99.90;;;;;;4688720;30;20425;-81
2021/04/20 04:20:27;;;;;;;5.47;4.97;;;5.90;99.90;;;;;;4690078;30;20433;-81
2021/04/20 04:23:09;;;;;;;5.60;5.10;;;6.10;99.90;;;;;;4699220;30;20994;-81
2021/04/20 04:25:40;;;;;;;6.40;5.80;;;6.10;99.90;;;;;;4693742;30;20468;-80
2021/04/20 04:28:07;;;;;;;6.80;6.18;;;6.10;99.90;;;;;;4678182;30;20954;-81
2021/04/20 04:30:34;;;;;;;6.70;6.00;;;6.20;99.90;;;;;;4676706;30;20769;-81
2021/04/20 04:33:00;;;;;;;6.55;5.95;;;6.00;99.90;;;;;;4681937;30;20423;-81
2021/04/20 04:35:26;;;;;;;6.30;5.70;;;6.10;99.90;;;;;;4709962;30;20439;-81
2021/04/20 04:38:21;;;;;;;6.30;5.70;;;6.10;99.90;;;;;;4710693;30;20847;-81
2021/04/20 04:41:21;;;;;;;5.97;5.33;;;6.10;99.90;;;;;;4682431;30;20430;-81
2021/04/20 04:43:47;;;;;;;5.63;5.13;;;6.20;99.90;;;;;;4685824;30;20441;-81
2021/04/20 04:46:41;;;;;;;5.67;4.60;;;6.20;99.90;;;;;;4689252;30;20580;-81
2021/04/20 04:49:08;;;;;;;5.03;4.57;;;6.20;99.90;;;;;;4714449;30;20449;-80
2021/04/20 04:51:36;;;;;;;5.03;4.55;;;6.30;99.90;;;;;;4721326;30;20437;-79
2021/04/20 04:54:02;;;;;;;5.37;4.90;;;6.50;99.90;;;;;;4733358;30;20428;-80
2021/04/20 04:56:28;;;;;;;5.15;4.65;;;6.50;99.90;;;;;;4730350;30;20505;-81
2021/04/20 04:58:54;;;;;;;5.57;5.07;;;6.60;99.90;;;;;;4741342;30;20519;-78
2021/04/20 05:01:20;;;;;;;6.05;5.55;;;6.50;99.90;;;;;;4742242;30;20957;-79
2021/04/20 05:03:45;;;;;;;6.03;5.53;;;6.60;99.90;;;;;;4730220;30;20439;-77
2021/04/20 05:06:14;;;;;;;5.53;5.03;;;6.50;99.90;;;;;;4718594;30;20488;-78
2021/04/20 05:08:40;;;;;;;5.80;5.30;;;6.50;99.90;;;;;;4744801;30;20557;-79
2021/04/20 05:11:05;;;;;;;5.50;5.00;;;6.60;99.90;;;;;;4745329;30;20418;-77
2021/04/20 05:13:31;;;;;;;5.77;5.27;;;6.50;99.90;;;;;;4730818;30;20430;-79
2021/04/20 05:16:07;;;;;;;6.20;5.65;;;6.60;99.90;;;;;;4723644;30;20787;-78
2021/04/20 05:18:36;;;;;;;6.30;5.80;;;6.50;99.90;;;;;;4714605;30;20422;-82
2021/04/20 05:21:02;;;;;;;6.35;5.75;;;6.50;99.90;;;;;;4730363;30;20437;-79
2021/04/20 05:23:27;;;;;;;5.43;4.93;;;6.60;99.90;;;;;;4747275;30;20430;-80
2021/04/20 05:25:53;;;;;;;5.50;5.00;;;6.60;99.90;;;;;;4729932;30;20415;-80
2021/04/20 05:28:20;;;;;;;5.53;5.03;;;6.70;99.90;;;;;;4730969;30;20580;-81
2021/04/20 05:30:46;;;;;;;5.32;4.82;;;6.80;99.90;;;;;;4735259;30;20460;-79
2021/04/20 05:33:13;;;;;;;6.03;5.20;;;6.80;99.90;;;;;;4732081;30;20434;-80
2021/04/20 05:35:40;;;;;;;5.57;5.07;;;6.80;99.90;;;;;;4739212;30;20434;-80
2021/04/20 05:38:06;;;;;;;5.32;4.82;;;6.90;99.90;;;;;;4745065;30;20406;-80
2021/04/20 05:40:36;;;;;;;5.45;4.95;;;7.00;99.90;;;;;;4734211;30;21173;-80
2021/04/20 05:43:02;;;;;;;5.20;4.70;;;7.00;99.90;;;;;;4738082;30;20437;-79
2021/04/20 05:45:28;;;;;;;5.60;5.10;;;7.10;99.90;;;;;;4707300;30;20436;-80
2021/04/20 05:47:53;;;;;;;4.93;4.50;;;7.20;99.90;;;;;;4729304;30;20441;-80
2021/04/20 05:50:23;;;;;;;4.88;4.47;;;7.30;99.90;;;;;;4728874;30;20426;-80
2021/04/20 05:52:50;;;;;;;4.60;4.20;;;7.30;99.90;;;;;;4730570;30;21263;-80
2021/04/20 05:55:16;;;;;;;4.60;4.15;;;7.40;99.90;;;;;;4736043;30;20459;-79
2021/04/20 05:57:52;;;;;;;5.00;4.57;;;7.40;99.90;;;;;;4730621;30;20495;-79
2021/04/20 06:00:19;;;;;;;4.57;4.18;;;7.50;99.90;;;;;;4733816;30;20525;-80
2021/04/20 06:02:46;;;;;;;4.15;3.85;;;7.50;99.90;;;;;;4731914;30;20547;-80
2021/04/20 06:05:15;;;;;;;4.63;4.22;;;7.60;99.90;;;;;;4731277;30;20434;-80
2021/04/20 06:07:53;;;;;;;4.50;4.10;;;7.70;99.90;;;;;;4725469;30;20442;-79
2021/04/20 06:10:19;;;;;;;4.80;4.40;;;7.70;99.90;;;;;;4720535;30;20430;-80
2021/04/20 06:12:45;;;;;;;4.97;4.40;;;7.90;99.90;;;;;;4721885;30;20420;-80
2021/04/20 06:15:11;;;;;;;4.97;4.57;;;7.80;99.90;;;;;;4743490;30;20509;-80
2021/04/20 06:17:37;;;;;;;4.63;4.22;;;7.90;99.90;;;;;;4738856;30;20488;-80
2021/04/20 06:20:04;;;;;;;4.97;4.57;;;8.00;99.90;;;;;;4733548;30;20426;-79
2021/04/20 06:22:30;;;;;;;4.28;3.70;;;8.00;99.90;;;;;;4701865;30;20542;-80
2021/04/20 06:24:56;;;;;;;4.38;4.03;;;8.00;99.90;;;;;;4729350;30;20445;-76
2021/04/20 06:27:21;;;;;;;4.30;3.92;;;8.10;99.90;;;;;;4728631;30;20426;-80
2021/04/20 06:29:47;;;;;;;5.67;4.10;;;8.20;99.90;;;;;;4735722;30;20418;-80
2021/04/20 06:32:13;;;;;;;4.95;4.53;;;8.30;99.90;;;;;;4716989;30;20943;-80
2021/04/20 06:34:38;;;;;;;4.73;4.33;;;8.40;99.90;;;;;;4739102;30;20477;-79
2021/04/20 06:37:06;;;;;;;4.60;4.20;;;8.40;99.90;;;;;;4729932;30;20436;-80
2021/04/20 06:39:32;;;;;;;4.40;4.10;;;8.50;99.90;;;;;;4731300;30;20440;-79
2021/04/20 06:41:58;;;;;;;4.85;4.38;;;8.50;99.90;;;;;;4733050;30;20430;-80
2021/04/20 06:44:30;;;;;;;4.53;4.13;;;8.50;99.90;;;;;;4715795;30;20492;-80
2021/04/20 06:47:17;;;;;;;4.55;4.15;;;8.60;99.90;;;;;;4728654;30;20426;-80
2021/04/20 06:49:50;;;;;;;4.72;4.32;;;8.70;99.90;;;;;;4729274;30;20511;-80
2021/04/20 06:52:29;;;;;;;5.37;4.27;;;8.70;99.90;;;;;;4729762;30;20431;-79
2021/04/20 06:55:04;;;;;;;4.78;4.38;;;8.70;99.90;;;;;;4740048;30;20464;-79
2021/04/20 06:57:39;;;;;;;4.97;4.47;;;8.70;99.90;;;;;;4729404;30;20503;-80
2021/04/20 07:00:16;;;;;;;5.07;4.68;;;8.80;99.90;;;;;;4733430;30;20827;-79
2021/04/20 07:03:03;;;;;;;4.60;4.20;;;8.80;99.90;;;;;;4743501;30;20475;-80
2021/04/20 07:05:49;;;;;;;5.05;4.57;;;8.60;99.90;;;;;;4710268;30;20942;-80
2021/04/20 07:08:31;;;;;;;5.22;4.78;;;8.70;99.90;;;;;;4744642;30;20422;-80
2021/04/20 07:10:57;;;;;;;5.43;4.93;;;8.80;99.90;;;;;;4713562;30;20502;-80
2021/04/20 07:13:23;;;;;;;5.78;5.22;;;8.90;99.90;;;;;;4732843;30;20504;-79
2021/04/20 07:15:57;;;;;;;5.67;5.10;;;8.90;99.90;;;;;;4730219;30;20477;-79
2021/04/20 07:18:32;;;;;;;5.90;5.20;;;8.90;99.90;;;;;;4738955;30;20440;-80
2021/04/20 07:21:07;;;;;;;5.53;5.03;;;8.90;99.90;;;;;;4740291;30;20453;-79
2021/04/20 07:23:58;;;;;;;6.90;6.20;;;9.00;99.90;;;;;;4732613;30;20414;-80
2021/04/20 07:26:29;;;;;;;7.57;6.78;;;9.10;99.90;;;;;;4729307;30;20440;-80
2021/04/20 07:29:10;;;;;;;7.32;6.63;;;9.30;99.90;;;;;;4745566;30;20784;-80
2021/04/20 07:31:58;;;;;;;7.53;6.78;;;9.20;99.90;;;;;;4719654;30;20415;-80
2021/04/20 07:34:30;;;;;;;7.45;6.53;;;9.20;99.90;;;;;;4745118;30;20429;-80
2021/04/20 07:37:23;;;;;;;7.90;7.20;;;9.30;99.90;;;;;;4730505;30;20471;-80
2021/04/20 07:39:54;;;;;;;8.63;7.78;;;9.50;99.90;;;;;;4744201;30;20445;-80
2021/04/20 07:42:47;;;;;;;8.63;7.68;;;9.60;99.90;;;;;;4739710;30;20473;-79
2021/04/20 07:45:18;;;;;;;9.80;8.63;;;9.60;99.90;;;;;;4706452;30;20449;-80
2021/04/20 07:47:51;;;;;;;9.68;8.27;;;9.80;99.90;;;;;;4733704;30;20862;-80
2021/04/20 07:50:23;;;;;;;9.60;8.20;;;9.90;99.90;;;;;;4737641;30;20430;-80
2021/04/20 07:52:58;;;;;;;10.20;8.88;;;9.90;99.90;;;;;;4743194;30;20502;-79
2021/04/20 07:55:26;;;;;;;10.95;9.23;;;10.10;99.90;;;;;;4727193;30;20434;-80
2021/04/20 07:57:57;;;;;;;10.07;8.63;;;10.10;99.90;;;;;;4729084;30;20424;-80
2021/04/20 08:00:34;;;;;;;9.88;8.50;;;10.10;99.90;;;;;;4710577;30;20511;-79
2021/04/20 08:03:20;;;;;;;9.65;8.60;;;10.20;99.90;;;;;;4734496;30;20515;-78
2021/04/20 08:05:55;;;;;;;9.80;8.80;;;10.30;99.90;;;;;;4749848;30;20519;-80
2021/04/20 08:08:31;;;;;;;10.75;9.32;;;10.40;99.90;;;;;;4736682;30;20420;-79
2021/04/20 08:11:08;;;;;;;9.98;8.98;;;10.50;99.90;;;;;;4744212;30;20429;-79
2021/04/20 08:14:14;;;;;;;9.77;8.68;;;10.60;99.90;;;;;;4717683;30;20430;-80
2021/04/20 08:16:46;;;;;;;10.68;8.30;;;10.70;99.90;;;;;;4699437;30;20964;-79
2021/04/20 08:19:30;;;;;;;9.52;8.45;;;10.90;99.90;;;;;;4730553;30;20512;-80
2021/04/20 08:21:56;;;;;;;9.45;8.45;;;11.00;99.90;;;;;;4731154;30;20422;-81
2021/04/20 08:24:26;;;;;;;9.07;8.18;;;11.10;99.90;;;;;;4725761;30;20430;-80
2021/04/20 08:27:09;;;;;;;8.77;7.80;;;11.10;99.90;;;;;;4745821;30;20421;-79
2021/04/20 08:29:39;;;;;;;9.60;8.05;;;11.10;99.90;;;;;;4723752;30;22342;-80
2021/04/20 08:32:51;;;;;;;8.73;7.82;;;11.00;99.90;;;;;;4725503;30;20460;-79
2021/04/20 08:45:09;;;;;;;7.47;6.78;;;10.70;99.90;;;;;;4751221;24;21276;-77
2021/04/20 08:47:55;;;;;;;8.25;7.45;;;11.00;99.90;;;;;;4726936;30;20843;-78
2021/04/20 08:50:24;;;;;;;8.13;7.33;;;11.00;99.90;;;;;;4715194;30;20503;-77
2021/04/20 08:53:22;;;;;;;8.30;7.20;;;11.00;99.90;;;;;;4695301;30;20426;-80
2021/04/20 08:56:20;;;;;;;8.10;7.30;;;11.00;99.90;;;;;;4688495;30;20953;-80
2021/04/20 08:59:06;;;;;;;7.47;6.68;;;11.00;99.90;;;;;;4724085;30;20469;-80
2021/04/20 09:01:51;;;;;;;8.00;7.20;;;11.00;99.90;;;;;;4703470;30;21031;-80
2021/04/20 09:04:50;;;;;;;7.70;7.00;;;11.00;99.90;;;;;;4714437;30;20438;-80
2021/04/20 09:07:32;;;;;;;8.15;7.28;;;11.10;99.90;;;;;;4706211;30;20456;-78
2021/04/20 09:10:04;;;;;;;8.10;6.65;;;11.10;99.90;;;;;;4712745;30;20418;-78
2021/04/20 09:12:30;;;;;;;8.55;7.57;;;11.20;99.90;;;;;;4716335;30;20563;-78
2021/04/20 09:14:56;;;;;;;8.00;7.20;;;11.20;99.90;;;;;;4717755;30;20472;-78
2021/04/20 09:17:22;;;;;;;8.82;7.78;;;11.30;99.90;;;;;;4709629;30;20933;-78
2021/04/20 09:19:56;;;;;;;7.60;6.82;;;11.60;99.90;;;;;;4714739;30;20456;-78
2021/04/20 09:22:40;;;;;;;7.88;7.18;;;11.40;99.90;;;;;;4733315;30;20427;-77
2021/04/20 09:25:13;;;;;;;8.15;7.25;;;11.30;99.90;;;;;;4698870;30;20446;-78
2021/04/20 09:28:05;;;;;;;8.83;7.77;;;11.30;99.90;;;;;;4724889;30;20441;-77
2021/04/20 09:30:35;;;;;;;8.35;7.45;;;11.50;99.90;;;;;;4725027;30;20422;-79
2021/04/20 09:33:07;;;;;;;6.82;6.22;;;11.80;99.90;;;;;;4711920;30;20421;-80
2021/04/20 09:35:33;;;;;;;7.43;6.72;;;12.00;99.90;;;;;;4723852;30;20470;-80
2021/04/20 09:37:59;;;;;;;7.68;6.90;;;12.30;99.90;;;;;;4690798;30;20504;-80
2021/04/20 09:40:24;;;;;;;7.68;6.60;;;12.40;99.90;;;;;;4690290;30;20552;-80
2021/04/20 09:42:58;;;;;;;7.13;6.43;;;12.50;99.90;;;;;;4703839;30;20426;-80
2021/04/20 09:45:36;;;;;;;7.10;6.40;;;12.60;99.90;;;;;;4681153;30;20517;-80
2021/04/20 09:48:23;;;;;;;7.65;6.90;;;13.00;99.90;;;;;;4683436;30;20420;-80
2021/04/20 09:50:54;;;;;;;8.15;7.35;;;13.20;99.90;;;;;;4691592;30;20519;-80
2021/04/20 09:53:40;;;;;;;8.30;7.47;;;13.30;99.90;;;;;;4702110;30;20761;-80
2021/04/20 09:56:25;;;;;;;7.70;6.90;;;13.50;99.90;;;;;;4738389;30;20439;-80
2021/04/20 09:58:51;;;;;;;9.88;7.65;;;13.80;99.90;;;;;;4724756;30;20414;-77
2021/04/20 10:01:28;;;;;;;8.20;7.37;;;14.00;99.90;;;;;;4689490;30;20781;-77
2021/04/20 10:04:11;;;;;;;7.60;6.88;;;14.30;99.90;;;;;;4744736;30;20479;-78
2021/04/20 10:07:00;;;;;;;8.10;7.30;;;14.40;99.90;;;;;;4721259;30;20414;-78
2021/04/20 10:09:37;;;;;;;7.07;6.38;;;14.50;99.90;;;;;;4706700;30;20426;-78
2021/04/20 10:12:36;;;;;;;8.05;7.15;;;14.60;99.90;;;;;;4714561;30;20410;-77
2021/04/20 10:15:23;;;;;;;6.28;5.75;;;14.90;99.90;;;;;;4713857;30;20510;-80
2021/04/20 10:18:08;;;;;;;7.60;6.80;;;15.10;99.90;;;;;;4698880;30;20445;-80
2021/04/20 10:20:55;;;;;;;7.90;6.82;;;15.30;99.90;;;;;;4728507;30;20480;-79
2021/04/20 10:24:00;;;;;;;7.32;6.63;;;15.40;99.90;;;;;;4689821;30;20435;-81
2021/04/20 10:27:08;;;;;;;7.20;6.43;;;15.50;99.90;;;;;;4696971;30;20430;-81
2021/04/20 10:30:13;;;;;;;6.25;5.50;;;15.70;99.90;;;;;;4696783;30;20490;-78
2021/04/20 10:32:51;;;;;;;8.00;6.28;;;15.80;99.90;;;;;;4687453;30;20418;-78
2021/04/20 10:35:20;;;;;;;9.43;7.40;;;15.60;99.90;;;;;;4706831;30;20414;-76
2021/04/20 10:37:47;;;;;;;9.40;6.83;;;15.80;99.90;;;;;;4724341;30;20627;-77
2021/04/20 10:40:18;;;;;;;7.93;7.00;;;16.10;99.90;;;;;;4721451;30;20414;-78
2021/04/20 10:42:48;;;;;;;8.20;7.35;;;16.50;99.90;;;;;;4680143;30;20433;-78
2021/04/20 10:45:15;;;;;;;7.72;7.00;;;16.50;99.90;;;;;;4744172;30;20425;-78
2021/04/20 10:47:41;;;;;;;7.70;6.80;;;16.70;99.90;;;;;;4728783;30;20461;-78
2021/04/20 10:50:07;;;;;;;6.30;5.40;;;17.00;99.90;;;;;;4731304;30;20468;-78
2021/04/20 10:52:36;;;;;;;7.60;6.57;;;17.10;99.90;;;;;;4696755;30;20429;-78
2021/04/20 10:55:09;;;;;;;6.27;5.67;;;17.00;99.90;;;;;;4695990;30;20509;-78
2021/04/20 10:57:38;;;;;;;8.43;7.15;;;17.30;99.90;;;;;;4703576;30;20432;-78
2021/04/20 11:00:05;;;;;;;7.93;7.13;;;17.50;99.90;;;;;;4679905;30;20435;-78
2021/04/20 11:02:36;;;;;;;7.50;6.65;;;17.70;99.90;;;;;;4710772;30;20461;-78
2021/04/20 11:05:03;;;;;;;7.05;6.38;;;17.40;99.90;;;;;;4732723;30;20510;-78
2021/04/20 11:07:33;;;;;;;6.15;5.53;;;17.60;99.90;;;;;;4686159;30;20426;-77
2021/04/20 11:10:09;;;;;;;8.00;6.05;;;17.60;99.90;;;;;;4664853;30;20424;-77
2021/04/20 11:12:50;;;;;;;6.47;5.97;;;17.80;99.90;;;;;;4732929;30;20440;-79
2021/04/20 11:15:23;;;;;;;6.90;6.17;;;17.70;99.90;;;;;;4713271;30;20487;-78
2021/04/20 11:17:51;;;;;;;8.05;6.40;;;17.90;99.90;;;;;;4713116;30;20549;-78
2021/04/20 11:20:38;;;;;;;6.30;5.70;;;17.90;99.90;;;;;;4746170;30;20416;-76
2021/04/20 11:23:07;;;;;;;9.65;6.85;;;18.20;99.90;;;;;;4722941;30;20426;-77
2021/04/20 11:25:36;;;;;;;7.13;6.43;;;18.20;99.90;;;;;;4714396;30;20547;-78
2021/04/20 11:28:07;;;;;;;7.88;7.05;;;17.80;99.90;;;;;;4721676;30;20459;-78
2021/04/20 11:30:34;;;;;;;6.63;5.93;;;17.90;99.90;;;;;;4729675;30;20506;-78
2021/04/20 11:33:11;;;;;;;7.43;5.65;;;18.20;99.90;;;;;;4708129;30;20424;-79
2021/04/20 11:39:03;;;;;;;5.97;5.38;;;18.70;99.90;;;;;;4740025;30;20412;-79
2021/04/20 11:41:54;;;;;;;6.37;5.77;;;18.60;99.90;;;;;;4682584;30;20442;-79
2021/04/20 11:44:20;;;;;;;6.65;5.95;;;18.30;99.90;;;;;;4725790;30;20478;-79
2021/04/20 11:46:47;;;;;;;6.18;5.57;;;18.40;99.90;;;;;;4713775;30;20900;-79
2021/04/20 11:49:27;;;;;;;6.50;5.90;;;18.60;99.90;;;;;;4717773;30;20807;-79
2021/04/20 11:51:54;;;;;;;6.90;5.65;;;18.90;99.90;;;;;;4693079;30;20854;-79
2021/04/20 11:54:24;;;;;;;5.90;4.88;;;19.10;99.90;;;;;;4688381;30;20515;-79
2021/04/20 11:56:51;;;;;;;6.75;6.13;;;19.40;99.90;;;;;;4695472;30;20446;-79
2021/04/20 11:59:23;;;;;;;6.43;5.35;;;19.00;99.90;;;;;;4703083;30;20426;-78
2021/04/20 12:01:49;;;;;;;7.43;5.93;;;19.40;99.90;;;;;;4699455;30;20499;-81
2021/04/20 12:04:15;;;;;;;7.80;5.50;;;19.60;99.90;;;;;;4679030;30;20424;-82
2021/04/20 12:06:48;;;;;;;5.95;5.35;;;20.00;99.90;;;;;;4701027;30;20450;-79
2021/04/20 12:09:19;;;;;;;8.07;5.65;;;19.80;99.90;;;;;;4678334;30;20536;-78
2021/04/20 12:11:48;;;;;;;6.53;5.80;;;19.40;99.90;;;;;;4717365;30;20425;-78
2021/04/20 12:14:17;;;;;;;5.63;5.10;;;19.50;99.90;;;;;;4702678;30;20425;-78
2021/04/20 12:16:44;;;;;;;7.75;5.97;;;19.60;99.90;;;;;;4712868;30;20422;-79
2021/04/20 12:19:13;;;;;;;6.63;5.65;;;19.50;99.90;;;;;;4701213;30;20426;-79
2021/04/20 12:21:39;;;;;;;7.32;6.00;;;19.60;99.90;;;;;;4702878;30;20821;-78
2021/04/20 12:24:07;;;;;;;6.25;5.65;;;19.60;99.90;;;;;;4706846;30;20861;-77
2021/04/20 12:26:33;;;;;;;7.38;5.80;;;19.40;99.90;;;;;;4705260;30;21361;-76
2021/04/20 12:29:07;;;;;;;5.97;5.40;;;19.40;99.90;;;;;;4704654;30;20509;-78
2021/04/20 12:31:37;;;;;;;6.32;5.82;;;19.60;99.90;;;;;;4717336;30;20487;-79
2021/04/20 12:34:02;;;;;;;4.93;4.53;;;19.80;99.90;;;;;;4724063;30;20435;-79
2021/04/20 12:36:30;;;;;;;5.57;5.07;;;20.40;99.90;;;;;;4701246;30;20920;-81
2021/04/20 12:42:27;;;;;;;5.93;5.07;;;20.10;99.90;;;;;;4750580;30;20438;-80
2021/04/20 12:44:54;;;;;;;4.63;4.22;;;20.40;99.90;;;;;;4702907;30;20444;-81
2021/04/20 12:47:20;;;;;;;4.30;3.90;;;20.80;99.90;;;;;;4722219;30;20470;-82
2021/04/20 12:49:49;;;;;;;4.40;3.95;;;20.40;99.90;;;;;;4700045;30;20423;-80
2021/04/20 12:52:19;;;;;;;4.53;4.13;;;20.30;99.90;;;;;;4765860;30;20424;-80
2021/04/20 12:54:46;;;;;;;4.10;3.80;;;20.30;99.90;;;;;;4722063;30;20449;-81
2021/04/20 12:57:22;;;;;;;6.63;4.78;;;20.30;99.90;;;;;;4706682;30;20453;-80
2021/04/20 12:59:50;;;;;;;3.80;3.50;;;20.50;99.90;;;;;;4731715;30;20505;-82
2021/04/20 13:02:25;;;;;;;4.40;3.92;;;20.70;99.90;;;;;;4688377;30;20446;-81
2021/04/20 13:04:59;;;;;;;4.20;3.80;;;20.30;99.90;;;;;;4719032;30;20482;-82
2021/04/20 13:07:41;;;;;;;4.97;4.50;;;20.40;99.90;;;;;;4707661;30;20517;-80
2021/04/20 13:10:07;;;;;;;4.85;3.70;;;20.50;99.90;;;;;;4699517;30;20938;-80
2021/04/20 13:12:37;;;;;;;3.90;3.60;;;20.70;99.90;;;;;;4687357;30;20410;-83
2021/04/20 13:15:38;;;;;;;4.95;4.10;;;20.60;99.90;;;;;;4701451;30;20547;-82
2021/04/20 13:18:18;;;;;;;3.85;3.45;;;20.80;99.90;;;;;;4708716;30;20422;-80
2021/04/20 13:21:15;;;;;;;4.00;3.40;;;20.70;99.90;;;;;;4701146;30;20505;-81
2021/04/20 13:23:46;;;;;;;4.53;3.90;;;20.70;99.90;;;;;;4703774;30;20931;-82
2021/04/20 13:26:17;;;;;;;4.00;3.60;;;20.80;99.90;;;;;;4718561;30;20965;-79
2021/04/20 13:28:47;;;;;;;4.75;3.80;;;21.50;99.90;;;;;;4698864;30;20470;-79
2021/04/20 13:31:22;;;;;;;4.70;3.83;;;21.30;99.90;;;;;;4689835;30;20494;-80
2021/04/20 13:34:04;;;;;;;4.85;4.20;;;21.00;99.90;;;;;;4716620;30;20430;-81
2021/04/20 13:36:33;;;;;;;4.50;4.10;;;20.80;99.90;;;;;;4729828;30;20418;-80